Have a Safe July 4th! 

Flight Track Log - Related Links

Times and Time Zones

All times are in EST time to prevent confusion due to time zone crossing. See the UAL5900 flight status page for this flight to view local times or setup timezone preferences in your user account.

Time Position Orientation Groundspeed Altitude Reporting Facility
EST Latitude Longitude Course Direction KTS MPH feet Rate Location/Type
Thu 02:50:28 PM 42.0000 -87.9333 90° East 169 194 1,300  Level Chicago TRACON
Thu 02:51:28 PM 42.0333 -87.9000 37° Northeast 223 257 3,500 1,762 Climbing Chicago TRACON
Thu 02:52:34 PM 42.1000 -87.8333 37° Northeast 262 302 5,000 1,738 Climbing Chicago TRACON
Thu 02:53:15 PM 42.1361 -87.7989 35° Northeast 261 300 6,600 2,214 Climbing Chicago Center
Thu 02:54:00 PM 42.0770 -87.2558 90° East  Level Estimated
Thu 02:54:17 PM 42.1697 -87.7075 64° Northeast 274 315 8,800  Level Chicago Center
Thu 02:55:00 PM 42.1003 -87.0928 90° East  Level Estimated
Thu 02:55:19 PM 42.1622 -87.5931 95° East 300 345 10,500  Level Chicago Center
Thu 02:56:22 PM 42.1511 -87.4653 97° East 335 386 11,400 1,283 Climbing Chicago Center
Thu 02:58:26 PM 42.1422 -87.1508 92° East 387 445 14,500 1,380 Climbing Chicago Center
Thu 02:59:29 PM 42.1461 -87.0036 88° East 392 451 15,700 1,143 Climbing Chicago Center
Thu 03:00:32 PM 42.1519 -86.8525 87° East 403 464 16,900 1,104 Climbing Chicago Center
Thu 03:01:34 PM 42.1594 -86.6792 87° East 414 476 18,000 1,113 Climbing Chicago Center
Thu 03:02:36 PM 42.1647 -86.5225 87° East 418 481 19,200 1,113 Climbing Chicago Center
Thu 03:03:38 PM 42.1708 -86.3625 87° East 426 490 20,300 1,113 Climbing Chicago Center
Thu 03:04:40 PM 42.1753 -86.2011 88° East 429 494 21,500 1,113 Climbing Chicago Center
Thu 03:05:42 PM 42.1808 -86.0378 87° East 434 499 22,600 1,258 Climbing Chicago Center
Thu 03:06:44 PM 42.1847 -85.8578 88° East 433 498 24,100 1,258 Climbing Chicago Center
Thu 03:07:46 PM 42.1900 -85.6950 87° East 437 503 25,200 1,056 Climbing Chicago Center
Thu 03:08:49 PM 42.1947 -85.5339 88° East 435 501 26,300 864 Climbing Chicago Center
Thu 03:09:51 PM 42.1981 -85.3708 88° East 437 503 27,000 339 Climbing Chicago Center
Thu 03:10:53 PM 42.2036 -85.1650 88° East 457 526 27,000 581 Level Chicago Center
Thu 03:11:55 PM 42.2081 -84.9894 88° East 469 540 28,200 1,065 Climbing Chicago Center
Thu 03:12:57 PM 42.2108 -84.8186 89° East 460 529 29,200 968 Climbing Chicago Center
Thu 03:13:59 PM 42.2139 -84.6483 89° East 457 526 30,200 968 Climbing Chicago Center
Thu 03:15:01 PM 42.2186 -84.4764 88° East 460 529 31,200 1,052 Climbing Chicago Center
Thu 03:15:36 PM 42.2197 -84.3575 89° East 462 532 31,900 1,052 Climbing Cleveland Center
Thu 03:16:38 PM 42.2444 -84.1850 79° East 469 540 32,900 871 Climbing Cleveland Center
Thu 03:17:40 PM 42.2694 -84.0111 79° East 474 545 33,700 871 Climbing Cleveland Center
Thu 03:18:42 PM 42.2956 -83.8367 79° East 474 545 34,700 629 Climbing Cleveland Center
Thu 03:19:44 PM 42.3206 -83.6611 79° East 475 547 35,000 145 Climbing Cleveland Center
Thu 03:20:46 PM 42.3472 -83.4694 79° East 481 554 35,000  Level Cleveland Center
Thu 03:21:49 PM 42.3747 -83.2861 78° East 489 563 35,000  Level Cleveland Center
Thu 03:22:51 PM 42.4053 -83.0681 79° East 497 572 35,000  Level Cleveland Center
Thu 03:23:53 PM 42.4319 -82.8808 79° East 504 580 35,000  Level Cleveland Center
Thu 03:24:55 PM 42.4583 -82.6906 79° East 512 589 35,000  Level Cleveland Center
Thu 03:25:57 PM 42.4839 -82.4994 80° East 515 593 35,000  Level Cleveland Center
Thu 03:26:59 PM 42.5097 -82.3078 80° East 519 597 35,000  Level Cleveland Center
Thu 03:28:01 PM 42.5361 -82.1153 79° East 521 600 35,000  Level Cleveland Center
Thu 03:29:03 PM 42.5672 -81.8839 80° East 522 601 35,000  Level Cleveland Center
Thu 03:30:05 PM 42.5936 -81.6792 80° East 522 601 35,000  Level Cleveland Center
Thu 03:31:08 PM 42.6183 -81.4842 80° East 520 598 35,000  Level Cleveland Center
Thu 03:32:10 PM 42.6425 -81.2889 80° East 518 596 35,000  Level Cleveland Center
Thu 03:33:12 PM 42.6669 -81.0936 80° East 519 597 35,000  Level Cleveland Center
Thu 03:34:14 PM 42.6908 -80.8958 81° East 522 601 35,000  Level Cleveland Center
Thu 03:35:16 PM 42.7144 -80.6975 81° East 526 605 35,000  Level Cleveland Center
Thu 03:36:18 PM 42.7392 -80.5008 80° East 527 606 35,000  Level Cleveland Center
Thu 03:37:20 PM 42.7628 -80.3031 81° East 525 604 35,000 -290 Level Cleveland Center
Thu 03:38:22 PM 42.7894 -80.0711 81° East 527 606 34,400 -774 Descending Cleveland Center
Thu 03:39:24 PM 42.8125 -79.8772 81° East 523 602 33,400 -672 Descending Cleveland Center
Thu 03:40:27 PM 42.8325 -79.6822 82° East 521 600 33,000 -192 Descending Cleveland Center
Thu 03:41:29 PM 42.8542 -79.4867 81° East 521 600 33,000  Level Cleveland Center
Thu 03:42:31 PM 42.8747 -79.2894 82° East 528 608 33,000 -532 Level Cleveland Center
Thu 03:43:33 PM 42.8992 -79.0525 82° East 528 608 31,900 -968 Descending Cleveland Center
Thu 03:44:35 PM 42.9197 -78.8508 82° East 535 616 31,000 -919 Descending Cleveland Center
Thu 03:45:37 PM 42.9411 -78.6472 82° East 540 621 30,000 -968 Descending Cleveland Center
Thu 03:46:39 PM 42.9611 -78.4458 82° East 537 618 29,000 -1,016 Descending Cleveland Center
Thu 03:47:41 PM 42.9803 -78.2458 82° East 530 610 27,900 -1,694 Descending Cleveland Center
Thu 03:48:43 PM 42.9986 -78.0569 82° East 506 582 25,500 -2,516 Descending Cleveland Center
Thu 03:49:45 PM 43.0153 -77.8792 83° East 475 547 22,700 -2,448 Descending Cleveland Center
Thu 03:50:48 PM 43.0344 -77.6767 83° East 447 514 20,400 -2,016 Descending Cleveland Center
Thu 03:51:50 PM 43.0503 -77.5089 83° East 444 511 18,500 -1,790 Descending Cleveland Center
Thu 03:52:52 PM 43.0644 -77.3450 83° East 435 501 16,700 -1,887 Descending Cleveland Center
Thu 03:53:54 PM 43.0781 -77.1836 83° East 430 495 14,600 -1,984 Descending Cleveland Center
Thu 03:54:56 PM 43.0908 -77.0317 83° East 414 476 12,600 -1,742 Descending Cleveland Center
Thu 03:55:58 PM 43.1050 -76.8828 83° East 402 463 11,000 -774 Descending Cleveland Center
Thu 03:57:00 PM 43.1169 -76.7378 84° East 392 451 11,000 -435 Level Cleveland Center
Thu 03:58:02 PM 43.1311 -76.5736 83° East 372 428 10,100 -1,065 Descending Cleveland Center
Thu 03:59:04 PM 43.1394 -76.4586 84° East 320 368 8,800 -1,248 Descending Cleveland Center
Thu 04:00:07 PM 43.1492 -76.3492 83° East 298 343 7,500 -1,148 Descending Cleveland Center
Thu 04:00:59 PM 43.1558 -76.2675 84° East 282 325 6,600 -1,279 Descending Boston Center
Thu 04:01:08 PM 43.1575 -76.2425 85° East 272 313 6,200 -1,574 Descending Boston Center
Thu 04:02:00 PM 43.1647 -76.1656 83° East 274 315 5,000 -1,574 Descending Boston Center
Thu 04:02:09 PM 43.1683 -76.1408 79° East 268 308 4,600 -1,629 Descending Boston Center
Thu 04:03:10 PM 43.1819 -76.0342 80° East 281 323 3,100 -1,393 Descending Boston Center
Thu 04:04:01 PM 43.1964 -75.9400 78° East 276 318 2,000 -1,082 Descending Boston Center
Thu 04:04:11 PM 43.1981 -75.9253 81° East 266 306 2,000  Level Boston Center
Thu 04:05:02 PM 43.2078 -75.8494 80° East 259 298 2,000  Level Boston Center
Thu 04:05:11 PM 43.2083 -75.8378 86° East 234 269 2,000  Level Boston Center
Thu 04:06:12 PM 43.1836 -75.7689 116° Southeast 231 266 2,000  Level Boston Center
Thu 04:07:13 PM 43.1500 -75.8167 226° Southwest 177 204 2,000 -52 Level Boston Center
Thu 04:08:07 PM 43.1308 -75.8683 243° Southwest 195 224 1,900  Descending Boston Center
Thu 04:08:13 PM 43.1267 -75.8794 243° Southwest 179 206 2,000 90 Climbing Boston Center
Thu 04:09:14 PM 43.1119 -75.9419 252° West 174 200 2,000  Level Boston Center
Thu 04:10:11 PM 43.1125 -75.9928 271° West 176 203 2,000 -200 Level Boston Center
Thu 04:10:14 PM 43.1103 -76.0028 253° West 159 183 1,800 -900 Descending Boston Center
Thu 04:11:11 PM 43.1108 -76.0428 271° West 151 174 1,100 -727 Descending Boston Center
Thu 04:11:20 PM 43.1094 -76.0581 263° West 121 139 1,000 -689 Descending Boston Center
Thu 04:12:12 PM 43.1097 -76.0928 271° West 138 159 400 -692 Descending Boston Center

Login

Don't have an account? Register now (free) for customized features, flight alerts, and more!